Time;durP1;ratioP1;P1;durP2;ratioP2;P2;SDS_P1;SDS_P2;PMS_P1;PMS_P2;Temp;Humidity;BMP_temperature;BMP_pressure;BME280_temperature;BME280_humidity;BME280_pressure;Samples;Min_cycle;Max_cycle;Signal;HPM_P1;HPM_P2
2023/03/06 00:01:06;;;;;;;;;54.67;42.00;;;;;8.57;53.56;100947.53;2004387;28;3617949;-74
2023/03/06 00:02:17;;;;;;;;;55.33;45.33;;;;;8.57;53.21;100954.53;1987226;28;3611694;-73
2023/03/06 00:03:29;;;;;;;;;58.67;43.00;;;;;8.57;53.45;100946.69;2015766;28;3632577;-74
2023/03/06 00:04:41;;;;;;;;;53.00;41.33;;;;;8.55;53.87;100954.56;2016593;28;3595018;-73
2023/03/06 00:05:56;;;;;;;;;57.33;43.67;;;;;8.53;53.69;100944.13;2011314;28;3625246;-73
2023/03/06 00:07:07;;;;;;;;;56.67;39.33;;;;;8.52;53.72;100954.66;1992339;28;3642942;-74
2023/03/06 00:08:19;;;;;;;;;51.33;41.67;;;;;8.52;53.65;100949.41;2006389;28;3604412;-73
2023/03/06 00:09:31;;;;;;;;;52.33;40.00;;;;;8.50;54.09;100957.28;2003421;28;3628886;-74
2023/03/06 00:10:43;;;;;;;;;54.60;42.40;;;;;8.51;54.14;100948.53;2021565;28;3631445;-74
2023/03/06 00:11:55;;;;;;;;;52.20;42.00;;;;;8.49;54.31;100946.84;2020864;28;3612702;-74
2023/03/06 00:13:10;;;;;;;;;43.40;34.00;;;;;8.46;54.29;100950.38;2020432;28;3578329;-74
2023/03/06 00:14:21;;;;;;;;;42.50;36.50;;;;;8.44;53.67;100953.00;2024270;28;2847137;-74
2023/03/06 00:15:33;;;;;;;;;39.40;33.80;;;;;8.44;54.31;100949.56;2037507;28;3566858;-73
2023/03/06 00:16:45;;;;;;;;;38.40;30.00;;;;;8.42;53.88;100944.34;2022729;28;3602299;-74
2023/03/06 00:17:57;;;;;;;;;42.67;35.67;;;;;8.42;54.17;100951.34;2008259;28;3591929;-73
2023/03/06 00:19:09;;;;;;;;;46.20;34.60;;;;;8.41;54.31;100952.22;2035908;28;3613776;-73
2023/03/06 00:20:21;;;;;;;;;51.33;40.67;;;;;8.40;54.41;100946.13;2016605;28;3604409;-73
2023/03/06 00:21:32;;;;;;;;;45.00;36.50;;;;;8.39;53.97;100948.78;2000604;28;2848182;-73
2023/03/06 00:22:44;;;;;;;;;47.00;37.00;;;;;8.36;54.17;100938.38;2016398;28;3580448;-73
2023/03/06 00:23:56;;;;;;;;;46.20;37.60;;;;;8.36;54.20;100939.22;2036791;28;3600210;-74
2023/03/06 00:25:12;;;;;;;;;41.40;33.00;;;;;8.38;54.45;100936.56;2009969;28;3622082;-73
2023/03/06 00:26:23;;;;;;;;;49.50;37.00;;;;;8.38;54.78;100936.56;1995066;28;2852363;-73
2023/03/06 00:27:35;;;;;;;;;50.00;36.80;;;;;8.38;54.55;100936.56;2038919;27;3604441;-73
2023/03/06 00:28:47;;;;;;;;;49.20;36.60;;;;;8.39;54.40;100938.31;2043487;28;3600199;-73
2023/03/06 00:30:00;;;;;;;;;50.33;37.67;;;;;8.39;54.78;100938.31;2014319;28;3605479;-73
2023/03/06 00:31:10;;;;;;;;;50.00;34.00;;;;;8.39;54.32;100933.06;1995601;27;2850293;-74
2023/03/06 00:32:23;;;;;;;;;49.33;39.33;;;;;8.37;54.33;100937.47;2033525;28;3588769;-73
2023/03/06 00:33:34;;;;;;;;;42.50;34.00;;;;;8.34;54.09;100933.16;2024871;27;2875263;-73
2023/03/06 00:34:49;;;;;;;;;43.80;34.80;;;;;8.32;53.87;100934.97;2018717;28;3619998;-73
2023/03/06 00:36:06;;;;;;;;;42.00;34.00;;;;;8.30;53.39;100934.97;1996199;28;3584594;-73
2023/03/06 00:37:16;;;;;;;;;50.50;37.50;;;;;8.27;53.43;100927.16;2018664;28;2872215;-73
2023/03/06 00:38:32;;;;;;;;;38.40;34.60;;;;;8.26;53.45;100932.44;2013865;27;3587728;-74
2023/03/06 00:39:42;;;;;;;;;35.00;30.50;;;;;8.23;53.21;100938.59;2023726;28;2853346;-73
2023/03/06 00:40:54;;;;;;;;;42.67;34.67;;;;;8.22;53.20;100927.25;2005020;28;3595030;-73
2023/03/06 00:42:06;;;;;;;;;42.67;34.33;;;;;8.20;53.03;100925.56;2038697;28;3581511;-73
2023/03/06 00:43:18;;;;;;;;;35.60;31.40;;;;;8.18;53.04;100924.75;2050228;27;3598126;-73
2023/03/06 00:44:30;;;;;;;;;41.60;32.20;;;;;8.18;53.14;100924.75;2027150;27;3617896;-73
2023/03/06 00:45:42;;;;;;;;;39.20;30.20;;;;;8.17;52.82;100923.88;2011392;28;3617891;-73
2023/03/06 00:46:54;;;;;;;;;42.00;32.00;;;;;8.15;52.61;100925.66;2022539;28;3615804;-73
2023/03/06 00:48:06;;;;;;;;;38.60;33.80;;;;;8.15;53.21;100924.81;2021832;28;3584578;-73
2023/03/06 00:49:19;;;;;;;;;31.29;26.43;;;;;8.13;53.12;100916.97;2034224;27;3602338;-73
2023/03/06 00:50:31;;;;;;;;;36.00;30.60;;;;;8.12;53.12;100927.50;2025574;27;3603319;-73
2023/03/06 00:51:43;;;;;;;;;38.40;32.60;;;;;8.08;53.38;100922.31;2017686;28;3593941;-74
2023/03/06 00:52:55;;;;;;;;;35.40;27.20;;;;;8.06;53.30;100921.47;2020370;28;3578318;-73
2023/03/06 00:54:07;;;;;;;;;43.40;34.60;;;;;8.05;52.94;100918.91;2045543;28;3582550;-73
2023/03/06 00:55:19;;;;;;;;;38.40;33.80;;;;;8.03;53.53;100918.03;2045843;28;3566238;-74
2023/03/06 00:56:31;;;;;;;;;43.00;34.33;;;;;8.02;53.20;100927.69;2040098;28;3575234;-73
2023/03/06 00:57:43;;;;;;;;;40.40;33.20;;;;;8.02;53.26;100919.81;2043529;28;3560633;-73
2023/03/06 00:58:55;;;;;;;;;42.60;31.40;;;;;8.01;52.96;100928.56;2045724;28;3604366;-73
2023/03/06 01:00:08;;;;;;;;;33.33;29.00;;;;;8.00;53.50;100921.59;2016502;28;3600257;-74
2023/03/06 01:01:19;;;;;;;;;38.00;32.00;;;;;7.98;53.40;100918.13;2000921;27;2844039;-73
2023/03/06 01:02:30;;;;;;;;;40.20;32.20;;;;;7.97;53.21;100917.31;2000801;27;2870179;-73
2023/03/06 01:03:42;;;;;;;;;39.20;34.00;;;;;7.96;53.30;100920.78;2046854;27;3591898;-73
2023/03/06 01:04:54;;;;;;;;;34.20;29.80;;;;;7.96;52.91;100919.94;2044085;28;3600199;-74
2023/03/06 01:06:06;;;;;;;;;35.60;32.00;;;;;7.95;53.48;100918.22;2015774;28;3580414;-73
2023/03/06 01:07:17;;;;;;;;;38.00;32.80;;;;;7.95;52.97;100920.84;2026093;28;3585627;-73
2023/03/06 01:08:29;;;;;;;;;35.67;27.33;;;;;7.94;53.34;100921.72;2038231;28;3583581;-74
2023/03/06 01:09:41;;;;;;;;;47.00;37.40;;;;;7.94;53.55;100919.09;2041829;28;3600186;-73
2023/03/06 01:10:53;;;;;;;;;39.80;31.40;;;;;7.92;52.95;100916.53;2019647;28;3572083;-74
2023/03/06 01:12:06;;;;;;;;;34.80;28.80;;;;;7.92;53.44;100919.13;2044928;28;3607482;-74
2023/03/06 01:13:17;;;;;;;;;41.00;33.80;;;;;7.93;52.81;100914.75;2008867;28;3588745;-73
2023/03/06 01:14:30;;;;;;;;;36.20;28.40;;;;;7.92;53.01;100923.50;2011577;28;3624200;-74
2023/03/06 01:15:41;;;;;;;;;43.00;30.00;;;;;7.92;52.51;100918.28;1996094;28;2879367;-74
2023/03/06 01:16:53;;;;;;;;;36.00;31.00;;;;;7.93;52.38;100917.34;2008007;28;3609626;-73
2023/03/06 01:18:05;;;;;;;;;35.00;26.00;;;;;7.95;52.81;100918.22;2015754;27;3603367;-73
2023/03/06 01:19:17;;;;;;;;;46.00;34.67;;;;;7.94;52.62;100924.34;2039127;28;3578380;-73
2023/03/06 01:20:29;;;;;;;;;35.60;29.40;;;;;7.96;52.54;100917.31;2044040;28;3611668;-73
2023/03/06 01:21:41;;;;;;;;;33.20;31.00;;;;;7.96;52.05;100920.78;2012798;28;3605412;-73
2023/03/06 01:22:54;;;;;;;;;45.33;34.00;;;;;7.98;52.50;100923.38;2016003;28;3595042;-73
2023/03/06 01:24:05;;;;;;;;;36.00;27.00;;;;;7.97;52.73;100913.81;1997740;28;2865922;-73
2023/03/06 01:25:16;;;;;;;;;40.00;32.40;;;;;7.97;52.23;100919.06;2002269;28;3601739;-74
2023/03/06 01:26:28;;;;;;;;;32.67;27.00;;;;;7.96;52.22;100914.69;2037403;28;3590895;-73
2023/03/06 01:27:40;;;;;;;;;37.00;31.00;;;;;7.95;52.23;100920.84;2038990;28;3596056;-73
2023/03/06 01:28:52;;;;;;;;;31.67;26.00;;;;;7.93;52.14;100915.63;2011844;28;3589804;-74
2023/03/06 01:30:05;;;;;;;;;39.60;31.00;;;;;7.93;52.51;100909.50;2044020;27;3621481;-74
2023/03/06 01:31:16;;;;;;;;;41.50;32.50;;;;;7.92;52.10;100913.03;2000127;28;2855772;-74
2023/03/06 01:32:29;;;;;;;;;38.80;31.20;;;;;7.90;52.73;100909.59;2015106;28;3622550;-74
2023/03/06 01:33:40;;;;;;;;;42.00;29.50;;;;;7.87;52.76;100907.88;1993973;28;2877338;-73
2023/03/06 01:34:52;;;;;;;;;36.20;30.20;;;;;7.86;52.62;100909.63;2021532;28;3612698;-73
2023/03/06 01:36:10;;;;;;;;;35.80;30.60;;;;;7.86;52.90;100908.78;2018462;28;3606471;-74
2023/03/06 01:37:20;;;;;;;;;42.50;35.00;;;;;7.84;52.40;100902.72;1999652;28;2838791;-73
2023/03/06 01:38:34;;;;;;;;;40.80;32.60;;;;;7.85;53.21;100904.44;2038663;28;3591910;-74
2023/03/06 01:39:44;;;;;;;;;42.50;34.00;;;;;7.85;52.78;100902.66;2023246;28;2862748;-74
2023/03/06 01:40:56;;;;;;;;;37.00;31.33;;;;;7.85;52.93;100902.66;2016829;28;3598135;-74
2023/03/06 01:42:08;;;;;;;;;35.40;31.20;;;;;7.82;52.62;100901.88;2016344;28;3584570;-73
2023/03/06 01:43:25;;;;;;;;;42.20;35.00;;;;;7.81;53.14;100898.38;2017874;28;3588773;-73
2023/03/06 01:44:36;;;;;;;;;39.00;32.00;;;;;7.80;52.74;100895.81;1999297;28;2872131;-74
2023/03/06 01:45:48;;;;;;;;;41.80;32.40;;;;;7.79;52.79;100894.94;2016163;28;3601253;-73
2023/03/06 01:47:01;;;;;;;;;33.00;25.00;;;;;7.76;53.08;100893.25;2045072;28;3595010;-74
2023/03/06 01:48:11;;;;;;;;;39.00;33.00;;;;;7.75;53.47;100896.75;2001054;28;2843967;-73
2023/03/06 01:49:37;;;;;;;;;39.00;33.40;;;;;7.75;53.50;100895.91;2012979;28;3585603;-74
2023/03/06 01:50:49;;;;;;;;;41.00;32.00;;;;;7.75;53.21;100898.53;2000865;28;2862796;-74
2023/03/06 01:52:03;;;;;;;;;41.00;34.00;;;;;7.75;53.32;100896.75;1992514;28;2861722;-73
2023/03/06 01:53:14;;;;;;;;;44.00;34.00;;;;;7.72;53.49;100902.06;1998121;28;2867963;-73
2023/03/06 01:54:29;;;;;;;;;40.50;33.50;;;;;7.71;53.85;100894.22;2001173;28;2863086;-74
2023/03/06 01:55:40;;;;;;;;;44.00;35.00;;;;;7.67;53.96;100898.66;2001766;28;2852364;-74
2023/03/06 01:56:57;;;;;;;;;46.40;35.00;;;;;7.64;53.85;100894.34;1999517;28;3594987;-73
2023/03/06 01:58:14;;;;;;;;;43.50;35.00;;;;;7.62;53.72;100888.28;2025288;28;2846115;-74
2023/03/06 01:59:26;;;;;;;;;46.50;32.00;;;;;7.64;53.86;100890.84;2001009;27;2886694;-74
2023/03/06 02:00:37;;;;;;;;;41.67;33.00;;;;;7.65;53.84;100895.22;1999211;27;3589818;-74
2023/03/06 02:01:50;;;;;;;;;37.40;32.20;;;;;7.64;53.58;100898.69;2036620;28;3589826;-74
2023/03/06 02:03:08;;;;;;;;;43.00;34.50;;;;;7.64;53.98;100896.09;2002622;27;2856463;-74
2023/03/06 02:04:19;;;;;;;;;34.00;27.00;;;;;7.63;53.69;100892.59;2001632;27;3607539;-74
2023/03/06 02:05:31;;;;;;;;;31.20;25.20;;;;;7.62;53.63;100887.41;2007402;28;3602290;-74
2023/03/06 02:06:43;;;;;;;;;33.00;30.80;;;;;7.63;52.96;100894.38;2005279;28;3602286;-74
2023/03/06 02:07:56;;;;;;;;;33.40;27.20;;;;;7.62;53.01;100890.91;2015339;28;3601242;-73
2023/03/06 02:09:08;;;;;;;;;33.67;25.33;;;;;7.61;52.87;100894.38;1997543;27;3599209;-73
2023/03/06 02:10:19;;;;;;;;;36.50;28.00;;;;;7.59;52.66;100882.22;2002224;27;2867057;-73
2023/03/06 02:11:31;;;;;;;;;35.20;29.40;;;;;7.55;52.50;100884.03;2010897;28;3602313;-73
2023/03/06 02:12:44;;;;;;;;;32.00;28.33;;;;;7.53;52.10;100886.66;2035566;28;3591235;-74
2023/03/06 02:13:55;;;;;;;;;41.00;31.00;;;;;7.51;52.67;100898.06;2024740;28;2871493;-73
2023/03/06 02:15:07;;;;;;;;;34.40;29.00;;;;;7.50;52.26;100893.72;2015685;28;3586891;-73
2023/03/06 02:16:22;;;;;;;;;31.00;29.67;;;;;7.48;52.53;100893.72;2035159;28;3593993;-73
2023/03/06 02:17:34;;;;;;;;;38.33;28.33;;;;;7.49;52.15;100890.25;2023641;28;3597134;-73
2023/03/06 02:18:47;;;;;;;;;36.33;28.33;;;;;7.49;52.29;100894.59;2001605;28;3613781;-73
2023/03/06 02:20:22;;;;;;;;;29.00;26.33;;;;;7.49;52.10;100892.84;1997557;28;3583588;-73
2023/03/06 02:21:36;;;;;;;;;36.00;28.00;;;;;7.47;52.57;100888.53;2016458;28;3598143;-73
2023/03/06 02:23:04;;;;;;;;;30.50;25.50;;;;;7.46;52.44;100885.06;2018361;28;2846129;-74
2023/03/06 02:24:38;;;;;;;;;34.00;28.00;;;;;7.46;52.31;100885.06;1999052;28;3599264;-74
2023/03/06 02:25:50;;;;;;;;;38.00;31.00;;;;;7.43;52.30;100875.50;2025773;28;2855477;-73
2023/03/06 02:27:04;;;;;;;;;30.50;26.00;;;;;7.43;52.67;100880.75;2000477;28;2850268;-74
2023/03/06 02:28:18;;;;;;;;;33.33;30.00;;;;;7.42;52.23;100879.03;2000732;27;3580437;-73
2023/03/06 02:29:29;;;;;;;;;36.00;30.50;;;;;7.41;52.50;100872.06;2031446;27;2866923;-73
2023/03/06 02:30:42;;;;;;;;;32.00;30.00;;;;;7.43;52.32;100870.28;2000488;27;2860673;-74
2023/03/06 02:31:52;;;;;;;;;31.00;25.50;;;;;7.44;52.39;100868.53;2009541;27;2854396;-73
2023/03/06 02:33:05;;;;;;;;;37.67;32.33;;;;;7.42;51.99;100858.09;2022761;27;3597099;-73
2023/03/06 02:34:15;;;;;;;;;44.00;31.00;;;;;7.42;52.51;100863.34;2025098;27;2857556;-73
2023/03/06 02:35:30;;;;;;;;;35.80;31.00;;;;;7.40;52.23;100859.03;2021097;27;3575220;-73
2023/03/06 02:36:46;;;;;;;;;38.00;28.00;;;;;7.41;52.27;100860.72;2027262;28;2866876;-73
2023/03/06 02:38:01;;;;;;;;;36.00;30.00;;;;;7.38;52.70;100855.56;2008202;27;2865350;-73
2023/03/06 02:39:14;;;;;;;;;26.00;24.67;;;;;7.35;52.51;100851.25;2005837;27;3578411;-73
2023/03/06 02:40:24;;;;;;;;;40.50;31.00;;;;;7.36;52.50;100857.38;2018144;27;2862760;-73
2023/03/06 02:41:36;;;;;;;;;40.00;31.33;;;;;7.39;52.78;100852.06;2004418;27;3624145;-73
2023/03/06 02:42:52;;;;;;;;;35.00;28.80;;;;;7.40;52.50;100854.66;2014925;28;3600230;-73
2023/03/06 02:44:02;;;;;;;;;39.00;32.50;;;;;7.41;52.75;100845.91;2001903;28;2870008;-74
2023/03/06 02:45:22;;;;;;;;;42.00;32.20;;;;;7.43;52.98;100848.53;2015299;28;3594979;-73
2023/03/06 02:46:34;;;;;;;;;42.67;30.33;;;;;7.45;52.40;100851.09;1999931;28;3626260;-74
2023/03/06 02:47:46;;;;;;;;;37.40;31.40;;;;;7.47;52.69;100849.31;2019526;28;3607472;-74
2023/03/06 02:48:58;;;;;;;;;42.40;32.00;;;;;7.47;52.93;100836.22;2021611;28;3586658;-74
2023/03/06 02:50:10;;;;;;;;;36.00;32.33;;;;;7.48;52.76;100846.66;2017748;28;3576273;-73
2023/03/06 02:51:21;;;;;;;;;42.50;32.50;;;;;7.50;52.67;100844.03;2025139;27;2852340;-74
2023/03/06 02:52:33;;;;;;;;;31.00;31.00;;;;;7.50;52.65;100844.03;2029812;27;3601261;-73
2023/03/06 02:53:45;;;;;;;;;36.33;32.00;;;;;7.51;52.79;100838.75;2013027;27;3612720;-74
2023/03/06 02:54:57;;;;;;;;;39.80;31.20;;;;;7.51;52.51;100845.72;2019198;27;3608520;-73
2023/03/06 02:56:09;;;;;;;;;39.40;32.20;;;;;7.51;52.43;100844.00;2018130;28;3599170;-73
2023/03/06 02:57:21;;;;;;;;;38.40;33.00;;;;;7.50;52.27;100839.66;2011968;28;3609634;-74
2023/03/06 02:58:33;;;;;;;;;35.40;33.00;;;;;7.50;52.41;100842.28;2021906;28;3602282;-73
2023/03/06 02:59:45;;;;;;;;;37.80;31.80;;;;;7.50;52.34;100833.56;2018212;27;3596017;-73
2023/03/06 03:00:57;;;;;;;;;36.80;32.40;;;;;7.50;52.81;100831.81;2020930;28;3595028;-74
2023/03/06 03:02:09;;;;;;;;;37.00;30.33;;;;;7.51;52.86;100836.16;2008188;28;3615898;-73
2023/03/06 03:03:21;;;;;;;;;36.40;30.00;;;;;7.53;52.46;100834.34;2014117;28;3612727;-73
2023/03/06 03:04:33;;;;;;;;;37.33;32.00;;;;;7.54;52.38;100832.59;2014759;28;3587039;-73
2023/03/06 03:05:45;;;;;;;;;31.00;28.33;;;;;7.53;52.32;100834.34;2023447;28;3595023;-73
2023/03/06 03:06:57;;;;;;;;;39.33;28.67;;;;;7.54;52.50;100835.22;2015588;28;3632529;-74
2023/03/06 03:08:09;;;;;;;;;39.40;31.60;;;;;7.53;52.61;100828.28;2016243;28;3589100;-74
2023/03/06 03:09:20;;;;;;;;;32.67;24.67;;;;;7.53;51.97;100831.75;2015663;28;3608572;-74
2023/03/06 03:10:32;;;;;;;;;38.40;32.60;;;;;7.51;51.97;100830.91;2043732;27;3621031;-73
2023/03/06 03:11:44;;;;;;;;;37.33;29.00;;;;;7.50;52.32;100828.34;2018552;28;3608563;-74
2023/03/06 03:12:57;;;;;;;;;34.40;26.00;;;;;7.50;51.81;100826.59;2021196;27;3611656;-74
2023/03/06 03:14:08;;;;;;;;;41.00;31.00;;;;;7.49;52.44;100830.09;2001050;28;3625246;-73
2023/03/06 03:15:20;;;;;;;;;41.40;33.00;;;;;7.48;52.19;100824.91;2020915;27;3598125;-73
2023/03/06 03:16:32;;;;;;;;;37.00;30.20;;;;;7.47;52.24;100817.91;2018497;28;3617903;-74
2023/03/06 03:17:44;;;;;;;;;28.20;26.20;;;;;7.46;52.36;100811.81;2020269;28;3585612;-74
2023/03/06 03:18:56;;;;;;;;;36.80;33.40;;;;;7.43;52.34;100812.75;2036907;28;3596045;-73
2023/03/06 03:20:12;;;;;;;;;41.00;32.00;;;;;7.46;52.13;100826.69;2032993;28;3603359;-74
2023/03/06 03:21:23;;;;;;;;;37.50;25.50;;;;;7.45;52.10;100819.72;1993779;28;2877332;-74
2023/03/06 03:22:35;;;;;;;;;37.40;31.60;;;;;7.45;51.91;100820.56;2011547;28;3596021;-74
2023/03/06 03:23:47;;;;;;;;;28.67;27.67;;;;;7.46;52.21;100818.84;2038511;27;3589810;-73
2023/03/06 03:24:59;;;;;;;;;34.80;25.40;;;;;7.46;51.80;100821.44;2019746;28;3607506;-74
2023/03/06 03:26:20;;;;;;;;;36.00;28.20;;;;;7.46;51.83;100813.59;2017315;28;3612805;-73
2023/03/06 03:27:30;;;;;;;;;38.00;30.00;;;;;7.45;52.14;100810.13;2001526;27;2874231;-73
2023/03/06 03:28:42;;;;;;;;;38.80;31.40;;;;;7.46;51.99;100813.59;2019523;28;3594028;-73
2023/03/06 03:29:58;;;;;;;;;37.33;31.00;;;;;7.48;52.25;100814.44;2038561;28;3608588;-73
2023/03/06 03:31:11;;;;;;;;;33.00;29.00;;;;;7.48;51.75;100811.81;2000209;28;2855481;-74
2023/03/06 03:32:23;;;;;;;;;34.33;32.00;;;;;7.50;52.14;100812.63;1999830;27;3591896;-73
2023/03/06 03:33:35;;;;;;;;;30.33;27.33;;;;;7.51;51.76;100809.13;1999664;27;3589812;-73
2023/03/06 03:34:47;;;;;;;;;37.33;30.00;;;;;7.52;52.12;100805.63;2037101;27;3610660;-74
2023/03/06 03:36:01;;;;;;;;;34.33;31.67;;;;;7.52;51.99;100814.34;2008220;27;3590879;-73
2023/03/06 03:37:12;;;;;;;;;32.00;26.50;;;;;7.53;52.00;100812.59;2025033;27;2849235;-74
2023/03/06 03:38:24;;;;;;;;;31.67;28.67;;;;;7.54;52.10;100816.91;2016776;27;3596036;-73
2023/03/06 03:39:36;;;;;;;;;39.80;31.60;;;;;7.54;52.13;100814.28;2044784;28;3585636;-73
2023/03/06 03:40:48;;;;;;;;;35.80;27.60;;;;;7.54;52.17;100815.16;2043321;28;3615126;-73
2023/03/06 03:42:00;;;;;;;;;40.00;31.40;;;;;7.56;52.14;100816.88;2019656;28;3614790;-74
2023/03/06 03:43:12;;;;;;;;;33.00;27.40;;;;;7.56;51.69;100814.25;2019722;28;3598144;-73
2023/03/06 03:44:24;;;;;;;;;32.00;27.00;;;;;7.56;52.01;100806.41;2015444;28;3599536;-74
2023/03/06 03:45:36;;;;;;;;;33.60;27.40;;;;;7.57;51.62;100808.16;2035428;28;3591855;-74
2023/03/06 03:46:48;;;;;;;;;35.80;28.40;;;;;7.56;52.19;100809.91;2020524;28;3569984;-73
2023/03/06 03:47:59;;;;;;;;;35.33;30.33;;;;;7.58;51.98;100805.50;2040176;28;3578368;-73
2023/03/06 03:49:11;;;;;;;;;36.40;29.40;;;;;7.57;51.81;100805.53;2042619;27;3607589;-74
2023/03/06 03:50:23;;;;;;;;;37.67;26.00;;;;;7.57;51.61;100797.69;2015653;27;3624177;-73
2023/03/06 03:51:35;;;;;;;;;39.00;27.60;;;;;7.54;52.27;100796.84;2017422;28;3622125;-73
2023/03/06 03:52:47;;;;;;;;;33.00;24.33;;;;;7.53;52.46;100804.75;2015968;28;3611127;-73
2023/03/06 03:53:59;;;;;;;;;38.20;29.20;;;;;7.53;52.25;100807.38;2020189;27;3624255;-73
2023/03/06 03:55:11;;;;;;;;;36.00;31.80;;;;;7.50;51.70;100803.06;2015561;28;3611693;-73
2023/03/06 03:56:24;;;;;;;;;36.00;29.33;;;;;7.50;52.11;100802.19;2014572;28;3601268;-73
2023/03/06 03:57:35;;;;;;;;;45.00;35.00;;;;;7.50;52.52;100802.19;2024805;27;2840895;-74
2023/03/06 03:58:47;;;;;;;;;35.60;31.80;;;;;7.50;52.03;100805.66;2041495;28;3602299;-74
2023/03/06 03:59:58;;;;;;;;;35.00;30.00;;;;;7.50;52.24;100807.41;2024098;28;2861718;-73
2023/03/06 04:01:09;;;;;;;;;39.80;31.80;;;;;7.51;52.26;100809.13;2018033;27;3608544;-74
2023/03/06 04:02:22;;;;;;;;;41.60;33.20;;;;;7.51;52.44;100801.28;2021959;28;3590836;-73
2023/03/06 04:03:33;;;;;;;;;39.50;29.50;;;;;7.51;52.63;100804.75;2001716;28;2881463;-73
2023/03/06 04:04:45;;;;;;;;;42.80;33.60;;;;;7.53;52.27;100804.75;2007043;28;3607970;-73
2023/03/06 04:05:57;;;;;;;;;35.80;30.00;;;;;7.52;52.56;100800.41;2020542;28;3609066;-73
2023/03/06 04:07:09;;;;;;;;;38.20;32.60;;;;;7.52;52.86;100796.03;2009206;27;3580485;-74
2023/03/06 04:08:21;;;;;;;;;33.80;31.60;;;;;7.53;52.58;100799.50;2016894;28;3591882;-73
2023/03/06 04:09:33;;;;;;;;;46.60;35.40;;;;;7.55;52.87;100797.72;2021810;27;3595026;-74
2023/03/06 04:10:45;;;;;;;;;38.60;34.00;;;;;7.55;52.96;100800.34;2020539;28;3587695;-73
2023/03/06 04:11:57;;;;;;;;;38.40;33.60;;;;;7.54;52.21;100798.59;2041648;28;3588739;-74
2023/03/06 04:13:09;;;;;;;;;43.80;34.20;;;;;7.53;52.73;100795.13;2019850;28;3594028;-73
2023/03/06 04:14:21;;;;;;;;;46.20;34.00;;;;;7.51;52.89;100799.53;2014975;28;3601258;-74
2023/03/06 04:15:32;;;;;;;;;35.33;32.00;;;;;7.49;52.56;100789.97;2000959;28;3592995;-74
2023/03/06 04:16:44;;;;;;;;;47.20;33.80;;;;;7.47;53.03;100791.78;2012812;28;3602321;-73
2023/03/06 04:17:56;;;;;;;;;42.80;36.40;;;;;7.46;53.15;100793.50;2021117;28;3589788;-75
2023/03/06 04:19:10;;;;;;;;;41.80;34.40;;;;;7.42;53.33;100795.34;2041453;28;3591197;-74
2023/03/06 04:20:21;;;;;;;;;45.67;33.67;;;;;7.41;52.87;100797.97;1991532;28;3593974;-73
2023/03/06 04:21:33;;;;;;;;;44.00;35.20;;;;;7.40;52.95;100793.66;2044447;28;3593953;-73
2023/03/06 04:22:45;;;;;;;;;50.60;35.40;;;;;7.39;52.76;100787.53;2008928;28;3610623;-74
2023/03/06 04:23:57;;;;;;;;;44.20;33.60;;;;;7.39;53.12;100784.94;2016160;28;3589850;-73
2023/03/06 04:25:09;;;;;;;;;49.00;38.00;;;;;7.39;53.43;100789.28;2032592;28;3607527;-73
2023/03/06 04:26:21;;;;;;;;;46.67;35.33;;;;;7.40;53.66;100783.19;2014341;28;3589843;-74
2023/03/06 04:27:33;;;;;;;;;42.40;32.80;;;;;7.40;53.24;100788.41;2043917;28;3581482;-74
2023/03/06 04:28:46;;;;;;;;;39.14;33.14;;;;;7.39;53.41;100787.53;2040489;28;3590881;-74
2023/03/06 04:29:58;;;;;;;;;41.20;35.40;;;;;7.41;53.44;100779.66;2021936;27;3582487;-73
2023/03/06 04:31:11;;;;;;;;;41.40;34.80;;;;;7.40;53.38;100784.06;2033381;28;3583537;-73
2023/03/06 04:32:23;;;;;;;;;45.00;31.50;;;;;7.40;53.20;100786.66;2026532;28;2869025;-73
2023/03/06 04:33:33;;;;;;;;;39.00;31.50;;;;;7.39;53.09;100784.94;2003003;28;2875217;-73
2023/03/06 04:34:45;;;;;;;;;42.80;32.60;;;;;7.39;53.45;100778.84;2020499;28;3597062;-73
2023/03/06 04:35:57;;;;;;;;;40.40;32.00;;;;;7.39;53.23;100784.06;2019961;28;3597062;-73
2023/03/06 04:37:19;;;;;;;;;48.60;34.00;;;;;7.39;53.21;100779.69;2014806;28;3602290;-73
2023/03/06 04:38:29;;;;;;;;;48.00;34.50;;;;;7.38;53.57;100783.19;1999400;28;2851361;-73
2023/03/06 04:39:41;;;;;;;;;47.60;35.00;;;;;7.35;53.00;100778.03;2014922;28;3600208;-74
2023/03/06 04:40:53;;;;;;;;;34.67;33.67;;;;;7.35;53.57;100775.44;2037367;28;3569006;-73
2023/03/06 04:42:05;;;;;;;;;43.80;33.80;;;;;7.34;53.19;100775.44;2042511;27;3590817;-74
2023/03/06 04:43:17;;;;;;;;;42.40;34.00;;;;;7.32;53.82;100778.09;2016555;28;3617930;-73
2023/03/06 04:44:29;;;;;;;;;35.60;31.80;;;;;7.32;53.41;100778.97;2021262;28;3610688;-73
2023/03/06 04:45:41;;;;;;;;;37.67;32.00;;;;;7.33;53.64;100782.44;2014464;28;3584616;-73
2023/03/06 04:46:53;;;;;;;;;42.33;34.00;;;;;7.33;53.64;100777.22;2033101;28;3582539;-73
2023/03/06 04:48:05;;;;;;;;;37.00;32.00;;;;;7.32;53.77;100784.19;2044745;27;3597059;-73
2023/03/06 04:49:17;;;;;;;;;39.40;35.40;;;;;7.31;53.40;100776.34;2013384;28;3587684;-74
2023/03/06 04:50:31;;;;;;;;;36.60;31.20;;;;;7.31;53.26;100781.59;2052929;27;3595019;-73
2023/03/06 04:51:42;;;;;;;;;39.00;32.67;;;;;7.31;53.26;100777.22;2004397;27;3578329;-74
2023/03/06 04:52:54;;;;;;;;;41.00;31.80;;;;;7.31;53.87;100777.22;2042785;28;3606441;-73
2023/03/06 04:54:06;;;;;;;;;39.80;33.40;;;;;7.31;53.93;100777.22;2020331;28;3613765;-73
2023/03/06 04:55:18;;;;;;;;;39.20;32.20;;;;;7.31;53.81;100776.34;2017000;28;3597083;-74
2023/03/06 04:56:30;;;;;;;;;41.60;35.20;;;;;7.30;53.85;100770.28;2016293;28;3581462;-73
2023/03/06 04:57:44;;;;;;;;;44.00;32.60;;;;;7.31;53.63;100771.13;2044156;28;3610643;-73
2023/03/06 04:58:55;;;;;;;;;43.00;34.50;;;;;7.32;53.70;100776.34;2002967;28;2847093;-73
2023/03/06 05:00:19;;;;;;;;;47.40;35.00;;;;;7.34;54.10;100772.81;2006151;27;3596028;-73
2023/03/06 05:01:30;;;;;;;;;29.33;24.67;;;;;7.34;53.99;100768.47;1997143;28;3561710;-74
2023/03/06 05:02:43;;;;;;;;;40.00;32.00;;;;;7.35;53.71;100783.28;2035612;28;3624164;-73
2023/03/06 05:03:53;;;;;;;;;43.50;34.50;;;;;7.32;53.80;100771.13;2001960;28;2847093;-74
2023/03/06 05:05:06;;;;;;;;;33.33;31.67;;;;;7.32;53.82;100770.25;2014409;28;3584606;-73
2023/03/06 05:06:17;;;;;;;;;44.20;35.00;;;;;7.32;54.03;100772.88;2033345;27;3580747;-73
2023/03/06 05:07:29;;;;;;;;;44.20;35.20;;;;;7.31;54.40;100773.75;2044657;28;3598320;-73
2023/03/06 05:08:41;;;;;;;;;47.20;35.20;;;;;7.30;53.93;100764.19;2020191;28;3582492;-73
2023/03/06 05:09:53;;;;;;;;;37.33;32.33;;;;;7.31;53.74;100765.91;2038759;28;3613792;-74
2023/03/06 05:11:05;;;;;;;;;45.20;34.40;;;;;7.30;54.17;100765.06;2014956;28;3607482;-73
2023/03/06 05:12:17;;;;;;;;;40.80;32.40;;;;;7.30;54.05;100758.97;2011657;27;3610608;-73
2023/03/06 05:13:29;;;;;;;;;37.00;32.00;;;;;7.32;53.94;100767.63;2010909;28;3584589;-74
2023/03/06 05:14:42;;;;;;;;;43.60;33.00;;;;;7.31;53.68;100772.00;2018791;28;3579377;-74
2023/03/06 05:15:53;;;;;;;;;39.50;31.50;;;;;7.32;53.62;100772.88;2002346;28;2856510;-73
2023/03/06 05:17:04;;;;;;;;;37.50;32.00;;;;;7.31;54.21;100768.50;2003687;28;2874171;-73
2023/03/06 05:18:16;;;;;;;;;40.00;33.40;;;;;7.32;53.69;100772.88;2019350;28;3586652;-73
2023/03/06 05:19:28;;;;;;;;;44.60;32.40;;;;;7.30;54.08;100766.81;2032728;28;3614766;-73
2023/03/06 05:20:40;;;;;;;;;39.00;32.00;;;;;7.29;53.87;100772.91;2015069;28;3604388;-74
2023/03/06 05:21:51;;;;;;;;;38.00;30.00;;;;;7.27;54.09;100772.09;2000111;28;2874183;-73
2023/03/06 05:23:03;;;;;;;;;42.33;34.67;;;;;7.26;53.89;100773.81;2041887;27;3586672;-74
2023/03/06 05:24:15;;;;;;;;;35.60;21.20;;;;;7.25;54.27;100769.50;2051736;28;1831525;-73
2023/03/06 05:25:25;;;;;;;;;40.50;30.50;;;;;7.25;53.97;100766.03;2024679;27;2879430;-73
2023/03/06 05:26:37;;;;;;;;;41.33;32.00;;;;;7.24;54.10;100764.28;2017781;27;3574150;-73